sensor_id;sensor_type;location;lat;lon;timestamp;P1;durP1;ratioP1;P2;durP2;ratioP2
7493;SDS011;3788;49.902;8.590;2023-02-13T00:02:21;8.43;;;5.70;;
7493;SDS011;3788;49.902;8.590;2023-02-13T00:04:48;10.13;;;6.97;;
7493;SDS011;3788;49.902;8.590;2023-02-13T00:07:15;9.27;;;6.87;;
7493;SDS011;3788;49.902;8.590;2023-02-13T00:09:42;7.83;;;6.47;;
7493;SDS011;3788;49.902;8.590;2023-02-13T00:12:08;9.77;;;6.97;;
7493;SDS011;3788;49.902;8.590;2023-02-13T00:14:37;9.77;;;6.60;;
7493;SDS011;3788;49.902;8.590;2023-02-13T00:17:04;10.73;;;6.40;;
7493;SDS011;3788;49.902;8.590;2023-02-13T00:19:31;9.03;;;6.63;;
7493;SDS011;3788;49.902;8.590;2023-02-13T00:21:58;11.17;;;7.43;;
7493;SDS011;3788;49.902;8.590;2023-02-13T00:24:25;10.60;;;6.90;;
7493;SDS011;3788;49.902;8.590;2023-02-13T00:26:52;8.83;;;6.23;;
7493;SDS011;3788;49.902;8.590;2023-02-13T00:29:18;8.37;;;6.20;;
7493;SDS011;3788;49.902;8.590;2023-02-13T00:31:46;8.80;;;6.53;;
7493;SDS011;3788;49.902;8.590;2023-02-13T00:34:13;8.67;;;6.53;;
7493;SDS011;3788;49.902;8.590;2023-02-13T00:36:40;9.20;;;7.00;;
7493;SDS011;3788;49.902;8.590;2023-02-13T00:39:07;9.27;;;6.63;;
7493;SDS011;3788;49.902;8.590;2023-02-13T00:41:36;8.90;;;6.83;;
7493;SDS011;3788;49.902;8.590;2023-02-13T00:44:02;11.23;;;7.40;;
7493;SDS011;3788;49.902;8.590;2023-02-13T00:46:29;10.20;;;7.43;;
7493;SDS011;3788;49.902;8.590;2023-02-13T00:48:57;13.60;;;8.53;;
7493;SDS011;3788;49.902;8.590;2023-02-13T00:51:24;11.57;;;8.30;;
7493;SDS011;3788;49.902;8.590;2023-02-13T00:53:50;13.17;;;8.37;;
7493;SDS011;3788;49.902;8.590;2023-02-13T00:56:17;11.50;;;7.67;;
7493;SDS011;3788;49.902;8.590;2023-02-13T00:58:44;11.73;;;8.80;;
7493;SDS011;3788;49.902;8.590;2023-02-13T01:01:11;10.60;;;7.47;;
7493;SDS011;3788;49.902;8.590;2023-02-13T01:03:37;12.53;;;8.07;;
7493;SDS011;3788;49.902;8.590;2023-02-13T01:06:06;10.93;;;7.70;;
7493;SDS011;3788;49.902;8.590;2023-02-13T01:08:33;10.30;;;7.30;;
7493;SDS011;3788;49.902;8.590;2023-02-13T01:11:00;10.80;;;7.17;;
7493;SDS011;3788;49.902;8.590;2023-02-13T01:13:27;11.47;;;7.83;;
7493;SDS011;3788;49.902;8.590;2023-02-13T01:15:53;12.63;;;7.90;;
7493;SDS011;3788;49.902;8.590;2023-02-13T01:18:20;12.03;;;7.40;;
7493;SDS011;3788;49.902;8.590;2023-02-13T01:20:54;10.90;;;7.50;;
7493;SDS011;3788;49.902;8.590;2023-02-13T01:23:24;12.27;;;8.33;;
7493;SDS011;3788;49.902;8.590;2023-02-13T01:25:50;12.33;;;8.50;;
7493;SDS011;3788;49.902;8.590;2023-02-13T01:28:17;10.73;;;7.60;;
7493;SDS011;3788;49.902;8.590;2023-02-13T01:30:44;10.83;;;7.47;;
7493;SDS011;3788;49.902;8.590;2023-02-13T01:33:10;12.13;;;7.83;;
7493;SDS011;3788;49.902;8.590;2023-02-13T01:35:37;12.33;;;8.40;;
7493;SDS011;3788;49.902;8.590;2023-02-13T01:38:04;12.50;;;8.57;;
7493;SDS011;3788;49.902;8.590;2023-02-13T01:40:32;11.53;;;8.03;;
7493;SDS011;3788;49.902;8.590;2023-02-13T01:42:59;14.17;;;8.57;;
7493;SDS011;3788;49.902;8.590;2023-02-13T01:45:27;13.03;;;8.30;;
7493;SDS011;3788;49.902;8.590;2023-02-13T01:47:55;13.47;;;8.33;;
7493;SDS011;3788;49.902;8.590;2023-02-13T01:50:31;13.10;;;8.77;;
7493;SDS011;3788;49.902;8.590;2023-02-13T01:53:02;13.27;;;8.87;;
7493;SDS011;3788;49.902;8.590;2023-02-13T01:55:34;12.23;;;8.80;;
7493;SDS011;3788;49.902;8.590;2023-02-13T01:58:06;12.90;;;8.40;;
7493;SDS011;3788;49.902;8.590;2023-02-13T02:00:34;12.77;;;9.20;;
7493;SDS011;3788;49.902;8.590;2023-02-13T02:03:05;11.67;;;8.07;;
7493;SDS011;3788;49.902;8.590;2023-02-13T02:05:35;12.00;;;7.80;;
7493;SDS011;3788;49.902;8.590;2023-02-13T02:08:03;11.73;;;8.20;;
7493;SDS011;3788;49.902;8.590;2023-02-13T02:10:35;12.00;;;8.50;;
7493;SDS011;3788;49.902;8.590;2023-02-13T02:13:04;12.70;;;8.50;;
7493;SDS011;3788;49.902;8.590;2023-02-13T02:15:33;12.83;;;8.83;;
7493;SDS011;3788;49.902;8.590;2023-02-13T02:18:00;14.47;;;8.83;;
7493;SDS011;3788;49.902;8.590;2023-02-13T02:20:33;13.70;;;9.90;;
7493;SDS011;3788;49.902;8.590;2023-02-13T02:23:23;13.67;;;9.03;;
7493;SDS011;3788;49.902;8.590;2023-02-13T02:29:35;14.73;;;9.80;;
7493;SDS011;3788;49.902;8.590;2023-02-13T02:32:28;12.93;;;8.60;;
7493;SDS011;3788;49.902;8.590;2023-02-13T02:35:10;13.90;;;9.63;;
7493;SDS011;3788;49.902;8.590;2023-02-13T02:37:48;11.93;;;7.93;;
7493;SDS011;3788;49.902;8.590;2023-02-13T02:40:29;10.77;;;8.00;;
7493;SDS011;3788;49.902;8.590;2023-02-13T02:43:06;13.13;;;7.80;;
7493;SDS011;3788;49.902;8.590;2023-02-13T02:45:47;12.77;;;7.97;;
7493;SDS011;3788;49.902;8.590;2023-02-13T02:48:23;9.90;;;6.93;;
7493;SDS011;3788;49.902;8.590;2023-02-13T02:51:13;13.47;;;8.33;;
7493;SDS011;3788;49.902;8.590;2023-02-13T02:53:48;12.87;;;8.60;;
7493;SDS011;3788;49.902;8.590;2023-02-13T02:56:23;12.90;;;8.20;;
7493;SDS011;3788;49.902;8.590;2023-02-13T02:58:53;12.17;;;8.80;;
7493;SDS011;3788;49.902;8.590;2023-02-13T03:01:43;10.93;;;8.07;;
7493;SDS011;3788;49.902;8.590;2023-02-13T03:04:31;11.30;;;7.87;;
7493;SDS011;3788;49.902;8.590;2023-02-13T03:07:19;11.70;;;7.37;;
7493;SDS011;3788;49.902;8.590;2023-02-13T03:09:47;12.17;;;7.50;;
7493;SDS011;3788;49.902;8.590;2023-02-13T03:12:35;10.30;;;7.17;;
7493;SDS011;3788;49.902;8.590;2023-02-13T03:15:22;10.50;;;7.83;;
7493;SDS011;3788;49.902;8.590;2023-02-13T03:17:51;13.50;;;8.73;;
7493;SDS011;3788;49.902;8.590;2023-02-13T03:20:39;10.53;;;7.93;;
7493;SDS011;3788;49.902;8.590;2023-02-13T03:23:30;10.73;;;7.60;;
7493;SDS011;3788;49.902;8.590;2023-02-13T03:26:09;12.33;;;8.23;;
7493;SDS011;3788;49.902;8.590;2023-02-13T03:29:00;12.80;;;8.50;;
7493;SDS011;3788;49.902;8.590;2023-02-13T03:31:52;11.23;;;7.47;;
7493;SDS011;3788;49.902;8.590;2023-02-13T03:34:25;12.07;;;7.73;;
7493;SDS011;3788;49.902;8.590;2023-02-13T03:37:19;11.10;;;8.43;;
7493;SDS011;3788;49.902;8.590;2023-02-13T03:40:11;10.47;;;7.30;;
7493;SDS011;3788;49.902;8.590;2023-02-13T03:42:41;11.53;;;8.20;;
7493;SDS011;3788;49.902;8.590;2023-02-13T03:45:13;9.27;;;6.50;;
7493;SDS011;3788;49.902;8.590;2023-02-13T03:48:02;12.43;;;7.80;;
7493;SDS011;3788;49.902;8.590;2023-02-13T03:50:34;11.33;;;7.87;;
7493;SDS011;3788;49.902;8.590;2023-02-13T03:53:04;11.10;;;7.70;;
7493;SDS011;3788;49.902;8.590;2023-02-13T03:55:34;12.50;;;7.33;;
7493;SDS011;3788;49.902;8.590;2023-02-13T03:58:22;9.70;;;7.27;;
7493;SDS011;3788;49.902;8.590;2023-02-13T04:01:10;10.80;;;7.77;;
7493;SDS011;3788;49.902;8.590;2023-02-13T04:06:08;10.13;;;7.00;;
7493;SDS011;3788;49.902;8.590;2023-02-13T04:08:39;9.87;;;6.80;;
7493;SDS011;3788;49.902;8.590;2023-02-13T04:11:08;10.57;;;7.37;;
7493;SDS011;3788;49.902;8.590;2023-02-13T04:13:41;11.17;;;7.87;;
7493;SDS011;3788;49.902;8.590;2023-02-13T04:16:14;13.23;;;8.43;;
7493;SDS011;3788;49.902;8.590;2023-02-13T04:18:43;12.27;;;8.43;;
7493;SDS011;3788;49.902;8.590;2023-02-13T04:21:10;12.43;;;8.33;;
7493;SDS011;3788;49.902;8.590;2023-02-13T04:23:37;14.30;;;9.50;;
7493;SDS011;3788;49.902;8.590;2023-02-13T04:26:06;13.90;;;9.30;;
7493;SDS011;3788;49.902;8.590;2023-02-13T04:28:39;18.93;;;11.33;;
7493;SDS011;3788;49.902;8.590;2023-02-13T04:31:05;17.03;;;10.77;;
7493;SDS011;3788;49.902;8.590;2023-02-13T04:33:32;18.87;;;11.20;;
7493;SDS011;3788;49.902;8.590;2023-02-13T04:35:59;23.87;;;12.67;;
7493;SDS011;3788;49.902;8.590;2023-02-13T04:38:26;19.83;;;12.23;;
7493;SDS011;3788;49.902;8.590;2023-02-13T04:40:52;19.93;;;13.23;;
7493;SDS011;3788;49.902;8.590;2023-02-13T04:43:20;17.73;;;12.17;;
7493;SDS011;3788;49.902;8.590;2023-02-13T04:45:47;23.17;;;13.33;;
7493;SDS011;3788;49.902;8.590;2023-02-13T04:48:14;22.30;;;13.53;;
7493;SDS011;3788;49.902;8.590;2023-02-13T04:50:41;19.37;;;12.27;;
7493;SDS011;3788;49.902;8.590;2023-02-13T04:53:08;21.80;;;14.87;;
7493;SDS011;3788;49.902;8.590;2023-02-13T04:55:34;21.67;;;13.53;;
7493;SDS011;3788;49.902;8.590;2023-02-13T04:58:01;22.17;;;13.70;;
7493;SDS011;3788;49.902;8.590;2023-02-13T05:00:30;22.17;;;13.13;;
7493;SDS011;3788;49.902;8.590;2023-02-13T05:02:59;23.80;;;14.30;;
7493;SDS011;3788;49.902;8.590;2023-02-13T05:05:29;21.33;;;12.07;;
7493;SDS011;3788;49.902;8.590;2023-02-13T05:07:55;21.20;;;13.13;;
7493;SDS011;3788;49.902;8.590;2023-02-13T05:10:22;22.67;;;14.40;;
7493;SDS011;3788;49.902;8.590;2023-02-13T05:12:49;22.63;;;13.43;;
7493;SDS011;3788;49.902;8.590;2023-02-13T05:15:15;20.50;;;13.00;;
7493;SDS011;3788;49.902;8.590;2023-02-13T05:17:44;18.10;;;12.23;;
7493;SDS011;3788;49.902;8.590;2023-02-13T05:20:11;20.57;;;12.63;;
7493;SDS011;3788;49.902;8.590;2023-02-13T05:22:42;20.47;;;12.40;;
7493;SDS011;3788;49.902;8.590;2023-02-13T05:25:27;16.17;;;10.27;;
7493;SDS011;3788;49.902;8.590;2023-02-13T05:27:53;20.77;;;12.40;;
7493;SDS011;3788;49.902;8.590;2023-02-13T05:30:20;19.30;;;11.43;;
7493;SDS011;3788;49.902;8.590;2023-02-13T05:32:47;18.23;;;10.63;;
7493;SDS011;3788;49.902;8.590;2023-02-13T05:35:14;16.83;;;10.67;;
7493;SDS011;3788;49.902;8.590;2023-02-13T05:37:42;15.37;;;10.50;;
7493;SDS011;3788;49.902;8.590;2023-02-13T05:40:09;16.67;;;11.33;;
7493;SDS011;3788;49.902;8.590;2023-02-13T05:42:37;15.47;;;10.70;;
7493;SDS011;3788;49.902;8.590;2023-02-13T05:45:04;17.17;;;10.77;;
7493;SDS011;3788;49.902;8.590;2023-02-13T05:47:31;16.50;;;9.77;;
7493;SDS011;3788;49.902;8.590;2023-02-13T05:49:59;16.40;;;10.50;;
7493;SDS011;3788;49.902;8.590;2023-02-13T05:52:26;16.43;;;10.67;;
7493;SDS011;3788;49.902;8.590;2023-02-13T05:54:53;16.37;;;10.57;;
7493;SDS011;3788;49.902;8.590;2023-02-13T05:57:19;16.50;;;10.60;;
7493;SDS011;3788;49.902;8.590;2023-02-13T05:59:46;17.30;;;9.70;;
7493;SDS011;3788;49.902;8.590;2023-02-13T06:02:13;14.77;;;9.80;;
7493;SDS011;3788;49.902;8.590;2023-02-13T06:04:39;15.27;;;10.27;;
7493;SDS011;3788;49.902;8.590;2023-02-13T06:07:07;14.20;;;9.20;;
7493;SDS011;3788;49.902;8.590;2023-02-13T06:09:34;15.53;;;10.43;;
7493;SDS011;3788;49.902;8.590;2023-02-13T06:12:01;15.43;;;9.70;;
7493;SDS011;3788;49.902;8.590;2023-02-13T06:14:28;15.37;;;10.23;;
7493;SDS011;3788;49.902;8.590;2023-02-13T06:16:54;15.77;;;10.43;;
7493;SDS011;3788;49.902;8.590;2023-02-13T06:19:21;15.13;;;9.33;;
7493;SDS011;3788;49.902;8.590;2023-02-13T06:21:48;15.57;;;10.00;;
7493;SDS011;3788;49.902;8.590;2023-02-13T06:24:17;13.80;;;8.87;;
7493;SDS011;3788;49.902;8.590;2023-02-13T06:26:43;14.63;;;9.90;;
7493;SDS011;3788;49.902;8.590;2023-02-13T06:29:10;15.33;;;9.43;;
7493;SDS011;3788;49.902;8.590;2023-02-13T06:31:37;16.67;;;10.27;;
7493;SDS011;3788;49.902;8.590;2023-02-13T06:34:04;16.07;;;9.23;;
7493;SDS011;3788;49.902;8.590;2023-02-13T06:36:31;16.53;;;9.93;;
7493;SDS011;3788;49.902;8.590;2023-02-13T06:38:58;16.27;;;10.00;;
7493;SDS011;3788;49.902;8.590;2023-02-13T06:41:26;16.07;;;10.07;;
7493;SDS011;3788;49.902;8.590;2023-02-13T06:43:53;16.42;;;12.13;;
7493;SDS011;3788;49.902;8.590;2023-02-13T06:46:19;15.33;;;9.50;;
7493;SDS011;3788;49.902;8.590;2023-02-13T06:48:46;16.07;;;9.63;;
7493;SDS011;3788;49.902;8.590;2023-02-13T06:51:13;12.80;;;8.70;;
7493;SDS011;3788;49.902;8.590;2023-02-13T06:53:40;14.07;;;9.77;;
7493;SDS011;3788;49.902;8.590;2023-02-13T06:56:06;13.63;;;9.23;;
7493;SDS011;3788;49.902;8.590;2023-02-13T06:58:36;12.30;;;8.57;;
7493;SDS011;3788;49.902;8.590;2023-02-13T07:01:04;14.67;;;8.93;;
7493;SDS011;3788;49.902;8.590;2023-02-13T07:03:31;11.03;;;7.93;;
7493;SDS011;3788;49.902;8.590;2023-02-13T07:05:57;13.27;;;8.67;;
7493;SDS011;3788;49.902;8.590;2023-02-13T07:08:24;11.43;;;8.53;;
7493;SDS011;3788;49.902;8.590;2023-02-13T07:10:51;12.10;;;8.47;;
7493;SDS011;3788;49.902;8.590;2023-02-13T07:13:17;15.80;;;10.17;;
7493;SDS011;3788;49.902;8.590;2023-02-13T07:15:46;12.80;;;8.60;;
7493;SDS011;3788;49.902;8.590;2023-02-13T07:18:13;14.63;;;9.73;;
7493;SDS011;3788;49.902;8.590;2023-02-13T07:20:39;15.27;;;10.00;;
7493;SDS011;3788;49.902;8.590;2023-02-13T07:23:06;16.70;;;11.03;;
7493;SDS011;3788;49.902;8.590;2023-02-13T07:25:33;17.33;;;10.40;;
7493;SDS011;3788;49.902;8.590;2023-02-13T07:28:00;17.30;;;10.83;;
7493;SDS011;3788;49.902;8.590;2023-02-13T07:30:28;17.07;;;10.10;;
7493;SDS011;3788;49.902;8.590;2023-02-13T07:32:58;15.57;;;10.27;;
7493;SDS011;3788;49.902;8.590;2023-02-13T07:35:25;13.83;;;9.77;;
7493;SDS011;3788;49.902;8.590;2023-02-13T07:37:52;18.90;;;11.60;;
7493;SDS011;3788;49.902;8.590;2023-02-13T07:40:19;16.27;;;10.23;;
7493;SDS011;3788;49.902;8.590;2023-02-13T07:42:46;18.83;;;11.57;;
7493;SDS011;3788;49.902;8.590;2023-02-13T07:45:13;20.27;;;10.93;;
7493;SDS011;3788;49.902;8.590;2023-02-13T07:47:40;19.03;;;10.67;;
7493;SDS011;3788;49.902;8.590;2023-02-13T07:50:09;19.50;;;10.63;;
7493;SDS011;3788;49.902;8.590;2023-02-13T07:52:36;23.17;;;11.80;;
7493;SDS011;3788;49.902;8.590;2023-02-13T07:55:03;17.57;;;10.50;;
7493;SDS011;3788;49.902;8.590;2023-02-13T07:57:30;16.67;;;9.70;;
7493;SDS011;3788;49.902;8.590;2023-02-13T07:59:58;19.47;;;10.57;;
7493;SDS011;3788;49.902;8.590;2023-02-13T08:02:25;18.07;;;10.03;;
7493;SDS011;3788;49.902;8.590;2023-02-13T08:04:52;15.63;;;9.33;;
7493;SDS011;3788;49.902;8.590;2023-02-13T08:07:20;13.50;;;9.40;;
7493;SDS011;3788;49.902;8.590;2023-02-13T08:09:47;14.20;;;8.97;;
7493;SDS011;3788;49.902;8.590;2023-02-13T08:12:31;15.23;;;8.63;;
7493;SDS011;3788;49.902;8.590;2023-02-13T08:15:00;16.27;;;9.67;;
7493;SDS011;3788;49.902;8.590;2023-02-13T08:17:26;12.33;;;8.77;;
7493;SDS011;3788;49.902;8.590;2023-02-13T08:19:53;15.37;;;8.60;;
7493;SDS011;3788;49.902;8.590;2023-02-13T08:22:21;14.40;;;8.80;;
7493;SDS011;3788;49.902;8.590;2023-02-13T08:24:48;14.83;;;8.60;;
7493;SDS011;3788;49.902;8.590;2023-02-13T08:27:14;13.70;;;8.27;;
7493;SDS011;3788;49.902;8.590;2023-02-13T08:29:41;12.50;;;7.97;;
7493;SDS011;3788;49.902;8.590;2023-02-13T08:32:08;12.30;;;7.30;;
7493;SDS011;3788;49.902;8.590;2023-02-13T08:34:35;10.57;;;7.17;;
7493;SDS011;3788;49.902;8.590;2023-02-13T08:37:01;10.70;;;6.87;;
7493;SDS011;3788;49.902;8.590;2023-02-13T08:39:30;12.50;;;8.20;;
7493;SDS011;3788;49.902;8.590;2023-02-13T08:41:56;12.73;;;7.53;;
7493;SDS011;3788;49.902;8.590;2023-02-13T08:44:23;10.77;;;7.07;;
7493;SDS011;3788;49.902;8.590;2023-02-13T08:46:50;13.77;;;7.80;;
7493;SDS011;3788;49.902;8.590;2023-02-13T08:49:17;10.07;;;7.60;;
7493;SDS011;3788;49.902;8.590;2023-02-13T08:51:43;12.07;;;7.77;;
7493;SDS011;3788;49.902;8.590;2023-02-13T08:54:10;11.60;;;7.63;;
7493;SDS011;3788;49.902;8.590;2023-02-13T08:56:38;9.67;;;6.93;;
7493;SDS011;3788;49.902;8.590;2023-02-13T08:59:05;11.00;;;7.20;;
7493;SDS011;3788;49.902;8.590;2023-02-13T09:01:31;7.83;;;6.03;;
7493;SDS011;3788;49.902;8.590;2023-02-13T09:03:58;10.23;;;6.43;;
7493;SDS011;3788;49.902;8.590;2023-02-13T09:06:25;10.20;;;6.77;;
7493;SDS011;3788;49.902;8.590;2023-02-13T09:08:52;10.43;;;7.33;;
7493;SDS011;3788;49.902;8.590;2023-02-13T09:11:19;9.40;;;6.17;;
7493;SDS011;3788;49.902;8.590;2023-02-13T09:13:48;9.47;;;7.13;;
7493;SDS011;3788;49.902;8.590;2023-02-13T09:16:18;9.07;;;6.40;;
7493;SDS011;3788;49.902;8.590;2023-02-13T09:18:45;7.20;;;5.27;;
7493;SDS011;3788;49.902;8.590;2023-02-13T09:21:12;7.33;;;5.40;;
7493;SDS011;3788;49.902;8.590;2023-02-13T09:23:39;7.80;;;5.77;;
7493;SDS011;3788;49.902;8.590;2023-02-13T09:26:07;8.97;;;6.23;;
7493;SDS011;3788;49.902;8.590;2023-02-13T09:28:35;5.97;;;5.10;;
7493;SDS011;3788;49.902;8.590;2023-02-13T09:31:05;8.27;;;6.00;;
7493;SDS011;3788;49.902;8.590;2023-02-13T09:33:32;7.40;;;5.13;;
7493;SDS011;3788;49.902;8.590;2023-02-13T09:36:02;6.07;;;4.83;;
7493;SDS011;3788;49.902;8.590;2023-02-13T09:38:29;6.57;;;5.50;;
7493;SDS011;3788;49.902;8.590;2023-02-13T09:40:57;8.63;;;4.90;;
7493;SDS011;3788;49.902;8.590;2023-02-13T09:43:28;7.17;;;5.37;;
7493;SDS011;3788;49.902;8.590;2023-02-13T09:45:58;7.70;;;6.27;;
7493;SDS011;3788;49.902;8.590;2023-02-13T09:48:32;9.23;;;7.03;;
7493;SDS011;3788;49.902;8.590;2023-02-13T09:51:02;7.93;;;6.40;;
7493;SDS011;3788;49.902;8.590;2023-02-13T09:53:30;6.93;;;5.77;;
7493;SDS011;3788;49.902;8.590;2023-02-13T09:56:04;8.33;;;6.30;;
7493;SDS011;3788;49.902;8.590;2023-02-13T09:58:38;8.27;;;6.70;;
7493;SDS011;3788;49.902;8.590;2023-02-13T10:01:16;8.53;;;5.90;;
7493;SDS011;3788;49.902;8.590;2023-02-13T10:03:52;7.67;;;5.43;;
7493;SDS011;3788;49.902;8.590;2023-02-13T10:06:34;6.37;;;4.90;;
7493;SDS011;3788;49.902;8.590;2023-02-13T10:09:15;7.23;;;5.53;;
7493;SDS011;3788;49.902;8.590;2023-02-13T10:11:52;8.60;;;5.50;;
7493;SDS011;3788;49.902;8.590;2023-02-13T10:14:43;9.93;;;5.80;;
7493;SDS011;3788;49.902;8.590;2023-02-13T10:17:16;9.33;;;6.10;;
7493;SDS011;3788;49.902;8.590;2023-02-13T10:19:50;7.00;;;5.67;;
7493;SDS011;3788;49.902;8.590;2023-02-13T10:22:22;8.90;;;6.43;;
7493;SDS011;3788;49.902;8.590;2023-02-13T10:24:55;8.90;;;6.27;;
7493;SDS011;3788;49.902;8.590;2023-02-13T10:27:27;6.57;;;5.50;;
7493;SDS011;3788;49.902;8.590;2023-02-13T10:29:59;8.93;;;6.53;;
7493;SDS011;3788;49.902;8.590;2023-02-13T10:32:45;9.17;;;5.87;;
7493;SDS011;3788;49.902;8.590;2023-02-13T10:35:20;8.57;;;5.80;;
7493;SDS011;3788;49.902;8.590;2023-02-13T10:37:50;7.53;;;5.27;;
7493;SDS011;3788;49.902;8.590;2023-02-13T10:40:20;6.80;;;5.40;;
7493;SDS011;3788;49.902;8.590;2023-02-13T10:42:50;7.13;;;5.93;;
7493;SDS011;3788;49.902;8.590;2023-02-13T10:45:29;6.73;;;5.67;;
7493;SDS011;3788;49.902;8.590;2023-02-13T10:48:13;7.40;;;5.93;;
7493;SDS011;3788;49.902;8.590;2023-02-13T10:50:57;7.13;;;5.47;;
7493;SDS011;3788;49.902;8.590;2023-02-13T10:53:33;7.77;;;5.33;;
7493;SDS011;3788;49.902;8.590;2023-02-13T10:56:16;7.17;;;6.03;;
7493;SDS011;3788;49.902;8.590;2023-02-13T11:01:44;6.93;;;5.73;;
7493;SDS011;3788;49.902;8.590;2023-02-13T11:04:18;6.43;;;5.13;;
7493;SDS011;3788;49.902;8.590;2023-02-13T11:06:50;5.83;;;4.97;;
7493;SDS011;3788;49.902;8.590;2023-02-13T11:09:20;5.77;;;5.13;;
7493;SDS011;3788;49.902;8.590;2023-02-13T11:11:47;7.97;;;6.57;;
7493;SDS011;3788;49.902;8.590;2023-02-13T11:14:15;7.77;;;5.77;;
7493;SDS011;3788;49.902;8.590;2023-02-13T11:16:46;6.37;;;4.67;;
7493;SDS011;3788;49.902;8.590;2023-02-13T11:19:23;5.77;;;4.80;;
7493;SDS011;3788;49.902;8.590;2023-02-13T11:21:56;5.63;;;4.57;;
7493;SDS011;3788;49.902;8.590;2023-02-13T11:24:25;7.47;;;5.07;;
7493;SDS011;3788;49.902;8.590;2023-02-13T11:26:57;5.53;;;4.83;;
7493;SDS011;3788;49.902;8.590;2023-02-13T11:29:26;5.23;;;4.23;;
7493;SDS011;3788;49.902;8.590;2023-02-13T11:32:06;5.90;;;4.80;;
7493;SDS011;3788;49.902;8.590;2023-02-13T11:34:44;6.87;;;5.00;;
7493;SDS011;3788;49.902;8.590;2023-02-13T11:37:23;6.20;;;4.60;;
7493;SDS011;3788;49.902;8.590;2023-02-13T11:39:52;4.50;;;3.83;;
7493;SDS011;3788;49.902;8.590;2023-02-13T11:42:25;6.07;;;4.17;;
7493;SDS011;3788;49.902;8.590;2023-02-13T11:44:54;7.33;;;4.67;;
7493;SDS011;3788;49.902;8.590;2023-02-13T11:47:35;5.13;;;4.63;;
7493;SDS011;3788;49.902;8.590;2023-02-13T11:50:05;5.67;;;4.63;;
7493;SDS011;3788;49.902;8.590;2023-02-13T11:52:49;5.80;;;4.97;;
7493;SDS011;3788;49.902;8.590;2023-02-13T11:55:23;7.83;;;4.87;;
7493;SDS011;3788;49.902;8.590;2023-02-13T11:57:55;4.80;;;4.30;;
7493;SDS011;3788;49.902;8.590;2023-02-13T12:00:27;6.13;;;4.63;;
7493;SDS011;3788;49.902;8.590;2023-02-13T12:03:02;6.67;;;5.43;;
7493;SDS011;3788;49.902;8.590;2023-02-13T12:05:58;7.90;;;5.17;;
7493;SDS011;3788;49.902;8.590;2023-02-13T12:08:27;5.60;;;4.50;;
7493;SDS011;3788;49.902;8.590;2023-02-13T12:10:54;6.73;;;5.13;;
7493;SDS011;3788;49.902;8.590;2023-02-13T12:13:23;6.80;;;5.00;;
7493;SDS011;3788;49.902;8.590;2023-02-13T12:15:56;6.20;;;4.93;;
7493;SDS011;3788;49.902;8.590;2023-02-13T12:18:27;6.13;;;5.03;;
7493;SDS011;3788;49.902;8.590;2023-02-13T12:21:00;5.87;;;4.37;;
7493;SDS011;3788;49.902;8.590;2023-02-13T12:23:36;5.83;;;4.57;;
7493;SDS011;3788;49.902;8.590;2023-02-13T12:26:10;5.50;;;4.40;;
7493;SDS011;3788;49.902;8.590;2023-02-13T12:28:49;5.03;;;4.20;;
7493;SDS011;3788;49.902;8.590;2023-02-13T12:31:34;5.77;;;4.77;;
7493;SDS011;3788;49.902;8.590;2023-02-13T12:34:15;4.83;;;4.17;;
7493;SDS011;3788;49.902;8.590;2023-02-13T12:37:02;7.60;;;4.83;;
7493;SDS011;3788;49.902;8.590;2023-02-13T12:39:44;5.53;;;4.20;;
7493;SDS011;3788;49.902;8.590;2023-02-13T12:42:25;5.60;;;4.67;;
7493;SDS011;3788;49.902;8.590;2023-02-13T12:45:15;4.03;;;3.40;;
7493;SDS011;3788;49.902;8.590;2023-02-13T12:47:58;4.83;;;4.03;;
7493;SDS011;3788;49.902;8.590;2023-02-13T12:50:38;5.63;;;3.93;;
7493;SDS011;3788;49.902;8.590;2023-02-13T12:53:25;4.97;;;3.50;;
7493;SDS011;3788;49.902;8.590;2023-02-13T12:56:24;4.97;;;3.70;;
7493;SDS011;3788;49.902;8.590;2023-02-13T12:59:03;5.17;;;4.00;;
7493;SDS011;3788;49.902;8.590;2023-02-13T13:01:41;3.90;;;3.50;;
7493;SDS011;3788;49.902;8.590;2023-02-13T13:04:30;3.40;;;3.10;;
7493;SDS011;3788;49.902;8.590;2023-02-13T13:07:17;3.30;;;3.00;;
7493;SDS011;3788;49.902;8.590;2023-02-13T13:09:56;5.67;;;4.20;;
7493;SDS011;3788;49.902;8.590;2023-02-13T13:12:44;4.07;;;3.63;;
7493;SDS011;3788;49.902;8.590;2023-02-13T13:15:18;4.13;;;3.70;;
7493;SDS011;3788;49.902;8.590;2023-02-13T13:17:58;4.23;;;3.53;;
7493;SDS011;3788;49.902;8.590;2023-02-13T13:23:26;3.47;;;3.10;;
7493;SDS011;3788;49.902;8.590;2023-02-13T13:25:59;4.23;;;3.80;;
7493;SDS011;3788;49.902;8.590;2023-02-13T13:28:35;3.60;;;3.23;;
7493;SDS011;3788;49.902;8.590;2023-02-13T13:31:03;4.20;;;3.80;;
7493;SDS011;3788;49.902;8.590;2023-02-13T13:33:31;4.10;;;3.10;;
7493;SDS011;3788;49.902;8.590;2023-02-13T13:36:00;4.03;;;3.57;;
7493;SDS011;3788;49.902;8.590;2023-02-13T13:38:36;3.83;;;3.40;;
7493;SDS011;3788;49.902;8.590;2023-02-13T13:41:11;3.93;;;3.43;;
7493;SDS011;3788;49.902;8.590;2023-02-13T13:43:49;3.67;;;3.33;;
7493;SDS011;3788;49.902;8.590;2023-02-13T13:46:33;4.30;;;3.47;;
7493;SDS011;3788;49.902;8.590;2023-02-13T13:49:10;3.23;;;2.87;;
7493;SDS011;3788;49.902;8.590;2023-02-13T13:51:47;3.17;;;2.83;;
7493;SDS011;3788;49.902;8.590;2023-02-13T13:54:17;4.57;;;3.53;;
7493;SDS011;3788;49.902;8.590;2023-02-13T13:57:06;4.27;;;3.33;;
7493;SDS011;3788;49.902;8.590;2023-02-13T14:02:48;5.47;;;3.37;;
7493;SDS011;3788;49.902;8.590;2023-02-13T14:05:25;3.63;;;2.90;;
7493;SDS011;3788;49.902;8.590;2023-02-13T14:07:54;4.50;;;3.70;;
7493;SDS011;3788;49.902;8.590;2023-02-13T14:13:33;3.93;;;3.53;;
7493;SDS011;3788;49.902;8.590;2023-02-13T14:16:02;3.27;;;2.80;;
7493;SDS011;3788;49.902;8.590;2023-02-13T14:18:31;4.60;;;3.43;;
7493;SDS011;3788;49.902;8.590;2023-02-13T14:20:59;3.53;;;3.23;;
7493;SDS011;3788;49.902;8.590;2023-02-13T14:23:31;3.60;;;2.63;;
7493;SDS011;3788;49.902;8.590;2023-02-13T14:26:09;3.20;;;2.90;;
7493;SDS011;3788;49.902;8.590;2023-02-13T14:28:54;3.70;;;3.10;;
7493;SDS011;3788;49.902;8.590;2023-02-13T14:31:31;4.67;;;3.00;;
7493;SDS011;3788;49.902;8.590;2023-02-13T14:34:01;3.20;;;2.70;;
7493;SDS011;3788;49.902;8.590;2023-02-13T14:36:31;3.40;;;3.03;;
7493;SDS011;3788;49.902;8.590;2023-02-13T14:39:00;2.97;;;2.67;;
7493;SDS011;3788;49.902;8.590;2023-02-13T14:41:42;3.00;;;2.70;;
7493;SDS011;3788;49.902;8.590;2023-02-13T14:44:15;4.07;;;2.97;;
7493;SDS011;3788;49.902;8.590;2023-02-13T14:46:44;3.10;;;2.80;;
7493;SDS011;3788;49.902;8.590;2023-02-13T14:49:16;3.57;;;3.17;;
7493;SDS011;3788;49.902;8.590;2023-02-13T14:51:46;3.27;;;2.97;;
7493;SDS011;3788;49.902;8.590;2023-02-13T14:54:16;3.40;;;3.00;;
7493;SDS011;3788;49.902;8.590;2023-02-13T14:56:49;2.67;;;2.47;;
7493;SDS011;3788;49.902;8.590;2023-02-13T14:59:19;2.77;;;2.57;;
7493;SDS011;3788;49.902;8.590;2023-02-13T15:01:50;3.37;;;2.77;;
7493;SDS011;3788;49.902;8.590;2023-02-13T15:04:26;3.93;;;2.93;;
7493;SDS011;3788;49.902;8.590;2023-02-13T15:06:56;3.10;;;2.60;;
7493;SDS011;3788;49.902;8.590;2023-02-13T15:09:27;3.13;;;2.77;;
7493;SDS011;3788;49.902;8.590;2023-02-13T15:11:58;3.60;;;2.57;;
7493;SDS011;3788;49.902;8.590;2023-02-13T15:14:29;3.17;;;2.87;;
7493;SDS011;3788;49.902;8.590;2023-02-13T15:17:00;5.17;;;3.00;;
7493;SDS011;3788;49.902;8.590;2023-02-13T15:19:32;2.80;;;2.53;;
7493;SDS011;3788;49.902;8.590;2023-02-13T15:22:02;3.00;;;2.70;;
7493;SDS011;3788;49.902;8.590;2023-02-13T15:24:31;3.53;;;2.73;;
7493;SDS011;3788;49.902;8.590;2023-02-13T15:27:03;2.73;;;2.53;;
7493;SDS011;3788;49.902;8.590;2023-02-13T15:29:32;4.03;;;2.60;;
7493;SDS011;3788;49.902;8.590;2023-02-13T15:31:58;2.97;;;2.40;;
7493;SDS011;3788;49.902;8.590;2023-02-13T15:34:26;3.83;;;2.40;;
7493;SDS011;3788;49.902;8.590;2023-02-13T15:36:55;2.40;;;2.13;;
7493;SDS011;3788;49.902;8.590;2023-02-13T15:39:23;3.67;;;3.30;;
7493;SDS011;3788;49.902;8.590;2023-02-13T15:41:52;2.57;;;2.37;;
7493;SDS011;3788;49.902;8.590;2023-02-13T15:44:22;3.10;;;2.40;;
7493;SDS011;3788;49.902;8.590;2023-02-13T15:46:52;3.80;;;2.83;;
7493;SDS011;3788;49.902;8.590;2023-02-13T15:49:30;3.33;;;3.00;;
7493;SDS011;3788;49.902;8.590;2023-02-13T15:52:04;3.33;;;3.00;;